CZ-0027 weather

Teaching Hospital Na Bulovce Heliport
Praha 8, Prague (capital city), Czechia

Public forecast

Using degrees Celsius for public forecast. Weather courtesy of forecast.io.

METAR (pilot weather report)

Closest report is Kbely Air Base, 3.1 nm (5.8 km) E. Retrieved 2019/01/17 16:00 UTC (54 minutes ago):

LKKB 171600Z 22014KT 9999 OVC031 07/01 Q1002 NOSIG

TAF (pilot weather forecast)

Closest forecast is Kbely Air Base, 3.1 nm (5.8 km) E. Retrieved 2019/01/17 12:00 UTC (5 hours ago):

TAF LKKB 171100Z 1712/1812 23015KT CAVOK TEMPO 1712/1722 24018G28KT BKN027 BECMG 1802/1804 29014G26KT TEMPO 1806/1812 BKN024